Sea Island, Georgia
Current Conditions -  °F | °C
As of 1:53 PM on Friday 24 Oct 2014 (Local Time) from KSSI Reporting Station
Clear Clear  
Wind Chill: 72°   Ceiling: Unl
Heat Index: 72°   Visibility: 10mi
Dew Point: 48°   Wind: 7mph
Humidity: 43%   Direction: NA
Pressure: 30.02"   Gusts: NA
Location:  31.18°N, 81.35°W
Report Text: KSSI 241753Z AUTO VRB06KT 10SM CLR 22/09 A3002 RMK AO2 SLP164 T02220089 10222 20111 58019
Loading
Personal Weather Stations






























Interactive Weather Map
Tropical Storm Tracking
New forecast layout! Learn more

10-Day Weather Forecast

Advertisements
Track Severe Weather on mobile